Portada
METAR-TAF:

METAR-TAF

Aeroports :

Aeroport Internacional de Tunis

Tunis, Tunísia

latitud: 36-50N, longitud: 010-14E, altitud: 3 m

Observació

L'informe es va fer fa 26 minuts, a les 02:30 UTC
Vent 2 kt del Nord
Temperatura 23°C
Humitat 78%
Pressió 1014 hPa
Visibilitat 10 km o més
sense núvols per sota de 1500 mi sense presència de cumulonimbus.

METAR: DTTA 200230Z 01002KT CAVOK 23/19 Q1014

Hora: 03:56 (02:56 UTC)

Pronòstic

L'informe es va fer fa 3 hores i 56 minuts, a les 23:00 UTC
Pronòstic vàlid del 20 a les 00 UTC al 20 a les 24 UTC
Vent 4 kt amb direcció variable
Visibilitat 10 km o més
sense núvols per sota de 1500 mi sense presència de cumulonimbus.
Evolucionant progressivament
l' 20 a les 06 UTC al 20 a les 08 UTC
Vent 10 kt del Est
Evolucionant progressivament
l' 20 a les 19 UTC al 20 a les 21 UTC
Vent 8 kt del Sud/Sud-Est

TAF: DTTA 192300Z 2000/2024 VRB04KT CAVOK BECMG 2006/2008 08010KT BECMG 2019/2021 16008KT

Observacions i pronòstics meteorològics de més de 4000 aeroports (METAR i TAF).

Les estacions disponibles són els punts grocs i vermells al mapa.

Posi el ratolí al punt desitjat per veure el nom de l'estació.

Feu clic per veure les observacions i els pronòstics meteorològics.

Per canviar el mapa: feu clic els botons verds amb una creu de color negre per apropar; al botó verd amb un guió per allunyar la imatge; o en les fletxes verdes per a mapes adjacents.


METAR-TAF: